Time;durP1;ratioP1;P1;durP2;ratioP2;P2;SDS_P1;SDS_P2;PMS_P1;PMS_P2;Temp;Humidity;BMP_temperature;BMP_pressure;BME280_temperature;BME280_humidity;BME280_pressure;Samples;Min_cycle;Max_cycle;Signal;HPM_P1;HPM_P2
2022/01/09 11:54:05;;;;;;;7.32;1.40;;;;;;;;;;4471114;31;20051;-46
2022/01/09 11:56:51;;;;;;;4.75;1.27;;;;;;;;;;4451427;32;20089;-47
2022/01/09 11:59:37;;;;;;;4.72;1.27;;;;;;;;;;4461315;32;20097;-47
2022/01/09 12:02:29;;;;;;;7.47;1.40;;;;;;;;;;4456650;32;20022;-48
2022/01/09 12:05:01;;;;;;;4.43;1.40;;;;;;;;;;4453895;32;20049;-44
2022/01/09 12:07:32;;;;;;;4.75;1.20;;;;;;;;;;4421516;32;114474;-45
2022/01/09 12:10:02;;;;;;;4.12;1.50;;;;;;;;;;4412894;32;23458;-44
2022/01/09 12:12:33;;;;;;;8.55;1.40;;;;;;;;;;4425696;32;20357;-43
2022/01/09 12:15:04;;;;;;;3.25;1.02;;;;;;;;;;4424240;32;20099;-46
2022/01/09 12:17:45;;;;;;;5.18;1.50;;;;;;;;;;4419357;32;20053;-47
2022/01/09 12:20:14;;;;;;;2.95;1.10;;;;;;;;;;4419652;32;20095;-46
2022/01/09 12:25:32;;;;;;;5.87;1.30;;;;;;;;;;4423858;32;20054;-47
2022/01/09 12:28:04;;;;;;;6.57;1.40;;;;;;;;;;4422931;32;20039;-46
2022/01/09 12:30:33;;;;;;;3.40;0.90;;;;;;;;;;4421702;32;20045;-46
2022/01/09 12:33:05;;;;;;;6.10;1.25;;;;;;;;;;4420394;32;20038;-45
2022/01/09 12:35:35;;;;;;;4.18;0.93;;;;;;;;;;4429767;32;20027;-48
2022/01/09 12:38:03;;;;;;;4.72;1.10;;;;;;;;;;4422023;32;20042;-47
2022/01/09 12:40:33;;;;;;;4.75;1.45;;;;;;;;;;4428929;32;20159;-45
2022/01/09 12:43:03;;;;;;;2.65;0.98;;;;;;;;;;4422463;32;20023;-45
2022/01/09 12:45:33;;;;;;;4.72;1.15;;;;;;;;;;4429069;32;20047;-46
2022/01/09 12:48:03;;;;;;;3.37;1.10;;;;;;;;;;4424744;32;20318;-47
2022/01/09 12:50:33;;;;;;;5.53;1.20;;;;;;;;;;4426266;32;20404;-45
2022/01/09 12:53:14;;;;;;;3.92;1.10;;;;;;;;;;4423245;32;20065;-45
2022/01/09 12:56:01;;;;;;;5.35;1.17;;;;;;;;;;4424854;32;20429;-45
2022/01/09 12:58:34;;;;;;;5.22;1.08;;;;;;;;;;4427775;32;20042;-48
2022/01/09 13:01:04;;;;;;;3.78;1.10;;;;;;;;;;4430703;32;20042;-46
2022/01/09 13:03:34;;;;;;;6.45;1.02;;;;;;;;;;4419338;32;20090;-45
2022/01/09 13:06:07;;;;;;;6.35;1.08;;;;;;;;;;4414201;32;20046;-47
2022/01/09 13:08:38;;;;;;;4.40;1.00;;;;;;;;;;4403886;32;20046;-45
2022/01/09 13:11:07;;;;;;;4.12;1.20;;;;;;;;;;4403988;32;20066;-45
2022/01/09 13:13:37;;;;;;;4.10;1.10;;;;;;;;;;4408088;32;20046;-45
2022/01/09 13:16:13;;;;;;;7.53;1.23;;;;;;;;;;4406586;32;20070;-46
2022/01/09 13:18:41;;;;;;;3.97;1.10;;;;;;;;;;4408581;32;20052;-46
2022/01/09 13:21:15;;;;;;;3.72;0.75;;;;;;;;;;4416455;32;20027;-48
2022/01/09 13:23:44;;;;;;;;;;;;;;;;;;4405273;32;20102;-46
2022/01/09 13:26:16;;;;;;;4.25;1.05;;;;;;;;;;4406985;32;19984;-45
2022/01/09 13:28:45;;;;;;;5.78;0.88;;;;;;;;;;4413859;32;20114;-46
2022/01/09 13:31:14;;;;;;;2.17;0.85;;;;;;;;;;4410496;32;20038;-45
2022/01/09 13:33:52;;;;;;;3.95;0.95;;;;;;;;;;4409322;32;20046;-45
2022/01/09 13:36:27;;;;;;;4.87;0.98;;;;;;;;;;4415839;32;20034;-45
2022/01/09 13:38:56;;;;;;;6.43;1.00;;;;;;;;;;4409426;32;20362;-45
2022/01/09 13:41:28;;;;;;;5.03;1.10;;;;;;;;;;4405450;32;20054;-45
2022/01/09 13:43:56;;;;;;;8.60;1.25;;;;;;;;;;4413693;32;20078;-45
2022/01/09 13:46:25;;;;;;;5.78;1.15;;;;;;;;;;4413494;32;20030;-45
2022/01/09 13:48:54;;;;;;;5.57;1.00;;;;;;;;;;4418708;32;20046;-45
2022/01/09 13:51:42;;;;;;;7.57;1.15;;;;;;;;;;4407364;32;20103;-46
2022/01/09 13:54:12;;;;;;;6.12;0.98;;;;;;;;;;4408981;32;20329;-46
2022/01/09 13:56:44;;;;;;;5.47;0.90;;;;;;;;;;4409684;32;20068;-45
2022/01/09 13:59:12;;;;;;;4.82;0.90;;;;;;;;;;4406897;32;20101;-45
2022/01/09 14:01:46;;;;;;;3.17;0.93;;;;;;;;;;4413688;32;20062;-46
2022/01/09 14:04:21;;;;;;;5.37;0.83;;;;;;;;;;4401807;32;20592;-45
2022/01/09 14:07:16;;;;;;;4.20;0.80;;;;;;;;;;4412409;32;20636;-46
2022/01/09 14:09:52;;;;;;;7.80;0.95;;;;;;;;;;4404371;32;20041;-46
2022/01/09 14:12:23;;;;;;;4.97;1.10;;;;;;;;;;4409013;32;20084;-46
2022/01/09 14:14:52;;;;;;;2.62;1.00;;;;;;;;;;4418980;32;20046;-46
2022/01/09 14:17:24;;;;;;;4.15;0.77;;;;;;;;;;4403357;32;20429;-45
2022/01/09 14:19:53;;;;;;;7.37;1.10;;;;;;;;;;4407827;32;20067;-44
2022/01/09 14:22:21;;;;;;;3.03;1.00;;;;;;;;;;4403299;32;20065;-46
2022/01/09 14:25:07;;;;;;;4.75;1.02;;;;;;;;;;4412386;32;20034;-45
2022/01/09 14:27:37;;;;;;;2.40;1.08;;;;;;;;;;4421109;32;20050;-46
2022/01/09 14:30:22;;;;;;;3.22;0.70;;;;;;;;;;4416065;32;20042;-46
2022/01/09 14:33:05;;;;;;;5.93;1.10;;;;;;;;;;4411265;32;20046;-47
2022/01/09 14:35:36;;;;;;;4.35;1.00;;;;;;;;;;4413113;32;20083;-47
2022/01/09 14:38:06;;;;;;;3.55;0.90;;;;;;;;;;4401199;32;20038;-45
2022/01/09 14:40:35;;;;;;;6.32;1.20;;;;;;;;;;4417493;32;20146;-45
2022/01/09 14:43:04;;;;;;;5.85;1.00;;;;;;;;;;4410710;32;20039;-45
2022/01/09 14:45:32;;;;;;;7.43;1.02;;;;;;;;;;4411881;32;20083;-46
2022/01/09 14:48:01;;;;;;;5.90;0.90;;;;;;;;;;4408490;32;20073;-45
2022/01/09 14:50:29;;;;;;;4.18;0.80;;;;;;;;;;4414902;32;20418;-46
2022/01/09 14:52:58;;;;;;;4.12;0.88;;;;;;;;;;4406426;32;20448;-46
2022/01/09 14:55:26;;;;;;;3.30;1.10;;;;;;;;;;4413468;32;20058;-46
2022/01/09 14:57:54;;;;;;;3.58;0.95;;;;;;;;;;4405620;32;20095;-47
2022/01/09 15:00:23;;;;;;;4.68;1.08;;;;;;;;;;4414408;32;20055;-45
2022/01/09 15:02:51;;;;;;;3.28;0.70;;;;;;;;;;4402391;32;20039;-45
2022/01/09 15:05:24;;;;;;;6.93;1.10;;;;;;;;;;4415491;32;20090;-46
2022/01/09 15:07:53;;;;;;;3.42;1.00;;;;;;;;;;4405836;32;20132;-45
2022/01/09 15:10:21;;;;;;;5.80;0.85;;;;;;;;;;4406849;32;20069;-45
2022/01/09 15:12:50;;;;;;;2.78;0.80;;;;;;;;;;4415904;32;20073;-45
2022/01/09 15:15:18;;;;;;;4.45;0.90;;;;;;;;;;4413275;32;20385;-45
2022/01/09 15:17:47;;;;;;;5.53;0.90;;;;;;;;;;4410374;32;20138;-45
2022/01/09 15:20:21;;;;;;;6.68;1.00;;;;;;;;;;4418086;32;20042;-45
2022/01/09 15:22:50;;;;;;;3.15;0.82;;;;;;;;;;4406516;32;20054;-46
2022/01/09 15:25:19;;;;;;;4.72;1.15;;;;;;;;;;4413723;32;20057;-48
2022/01/09 15:27:47;;;;;;;4.87;1.12;;;;;;;;;;4412423;32;20134;-46
2022/01/09 15:30:16;;;;;;;10.07;1.33;;;;;;;;;;4418131;32;20045;-45
2022/01/09 15:32:47;;;;;;;5.60;1.20;;;;;;;;;;4405836;32;20091;-45
2022/01/09 15:35:16;;;;;;;4.30;1.20;;;;;;;;;;4417449;32;20101;-46
2022/01/09 15:37:45;;;;;;;7.12;1.27;;;;;;;;;;4412306;32;20031;-49
2022/01/09 15:40:14;;;;;;;4.30;1.12;;;;;;;;;;4409605;32;20042;-46
2022/01/09 15:42:42;;;;;;;7.25;1.10;;;;;;;;;;4414076;32;20123;-45
2022/01/09 15:45:11;;;;;;;8.20;1.45;;;;;;;;;;4409232;32;20063;-44
2022/01/09 15:47:39;;;;;;;8.85;1.20;;;;;;;;;;4413006;32;20438;-47
2022/01/09 15:50:08;;;;;;;5.93;1.20;;;;;;;;;;4410674;32;20093;-45
2022/01/09 15:52:36;;;;;;;4.57;1.12;;;;;;;;;;4413812;32;20030;-46
2022/01/09 15:55:05;;;;;;;6.22;0.93;;;;;;;;;;4408831;32;20426;-45
2022/01/09 15:57:37;;;;;;;7.45;1.40;;;;;;;;;;4408727;32;20035;-45
2022/01/09 16:00:06;;;;;;;6.37;1.27;;;;;;;;;;4404719;32;20089;-45
2022/01/09 16:02:42;;;;;;;10.50;1.62;;;;;;;;;;4402644;32;20078;-45
2022/01/09 16:05:12;;;;;;;8.20;1.75;;;;;;;;;;4411597;32;20107;-47
2022/01/09 16:07:40;;;;;;;9.18;1.70;;;;;;;;;;4410927;32;20373;-45
2022/01/09 16:10:09;;;;;;;10.27;1.40;;;;;;;;;;4400438;32;20462;-49
2022/01/09 16:12:39;;;;;;;10.35;1.50;;;;;;;;;;4405256;32;20039;-45
2022/01/09 16:15:08;;;;;;;8.93;1.60;;;;;;;;;;4401615;32;20647;-47
2022/01/09 16:17:36;;;;;;;11.00;1.23;;;;;;;;;;4414171;32;20050;-46
2022/01/09 16:20:06;;;;;;;11.85;1.70;;;;;;;;;;4410126;32;20075;-47
2022/01/09 16:22:34;;;;;;;11.60;1.58;;;;;;;;;;4410120;32;20070;-46
2022/01/09 16:25:02;;;;;;;5.82;1.33;;;;;;;;;;4420246;32;20034;-46
2022/01/09 16:27:30;;;;;;;13.10;1.52;;;;;;;;;;4413716;32;20069;-51
2022/01/09 16:30:02;;;;;;;11.80;1.40;;;;;;;;;;4410617;32;20424;-48
2022/01/09 16:32:31;;;;;;;8.73;1.67;;;;;;;;;;4414950;32;20117;-51
2022/01/09 16:34:59;;;;;;;9.50;1.70;;;;;;;;;;4403149;32;20088;-50
2022/01/09 16:37:27;;;;;;;9.40;1.20;;;;;;;;;;4409512;32;20064;-52
2022/01/09 16:39:56;;;;;;;6.35;1.27;;;;;;;;;;4412588;32;20057;-52
2022/01/09 16:42:25;;;;;;;6.60;1.37;;;;;;;;;;4414083;32;20034;-49
2022/01/09 16:44:54;;;;;;;8.02;1.30;;;;;;;;;;4411455;32;20047;-52
2022/01/09 16:47:23;;;;;;;5.87;1.25;;;;;;;;;;4415649;32;20065;-52
2022/01/09 16:49:52;;;;;;;5.90;1.20;;;;;;;;;;4411376;32;20417;-51
2022/01/09 16:52:20;;;;;;;8.25;1.23;;;;;;;;;;4414495;32;20038;-50
2022/01/09 16:54:48;;;;;;;4.68;1.45;;;;;;;;;;4404247;32;20131;-51
2022/01/09 16:57:17;;;;;;;8.15;1.20;;;;;;;;;;4413138;32;20058;-49
2022/01/09 16:59:45;;;;;;;3.78;1.50;;;;;;;;;;4416810;32;20061;-52
2022/01/09 17:02:14;;;;;;;7.50;1.35;;;;;;;;;;4416572;32;20035;-52
2022/01/09 17:04:42;;;;;;;6.90;1.10;;;;;;;;;;4414028;32;20026;-52
2022/01/09 17:07:12;;;;;;;4.50;1.10;;;;;;;;;;4411178;32;20027;-49
2022/01/09 17:09:41;;;;;;;5.12;1.12;;;;;;;;;;4415093;32;20079;-48
2022/01/09 17:12:09;;;;;;;9.30;1.58;;;;;;;;;;4411964;32;20101;-49
2022/01/09 17:14:37;;;;;;;5.80;1.37;;;;;;;;;;4402651;32;20114;-50
2022/01/09 17:17:06;;;;;;;8.60;1.37;;;;;;;;;;4413959;32;20440;-52
2022/01/09 17:19:35;;;;;;;5.40;1.02;;;;;;;;;;4411684;32;20466;-52
2022/01/09 17:22:03;;;;;;;3.45;1.10;;;;;;;;;;4415802;32;20049;-52
2022/01/09 17:24:31;;;;;;;3.95;0.90;;;;;;;;;;4409382;32;20066;-50
2022/01/09 17:27:00;;;;;;;3.72;0.90;;;;;;;;;;4407554;32;20361;-49
2022/01/09 17:29:28;;;;;;;4.70;1.00;;;;;;;;;;4409113;32;20048;-52
2022/01/09 17:31:57;;;;;;;4.30;1.10;;;;;;;;;;4406226;32;20095;-49
2022/01/09 17:34:25;;;;;;;5.28;0.90;;;;;;;;;;4408405;32;20035;-52
2022/01/09 17:36:53;;;;;;;6.70;1.15;;;;;;;;;;4404972;32;20027;-52
2022/01/09 17:39:22;;;;;;;4.55;1.00;;;;;;;;;;4412252;32;20095;-51
2022/01/09 17:41:50;;;;;;;5.07;1.02;;;;;;;;;;4415555;32;20073;-52
2022/01/09 17:44:18;;;;;;;4.70;1.42;;;;;;;;;;4408048;32;20092;-48
2022/01/09 17:46:47;;;;;;;3.35;1.05;;;;;;;;;;4411858;32;20072;-52
2022/01/09 17:49:24;;;;;;;4.10;0.80;;;;;;;;;;4413633;32;20034;-49
2022/01/09 17:51:53;;;;;;;6.78;1.23;;;;;;;;;;4408477;32;20428;-52
2022/01/09 17:54:22;;;;;;;3.35;1.15;;;;;;;;;;4413130;32;20056;-51
2022/01/09 17:56:51;;;;;;;3.10;0.70;;;;;;;;;;4413519;32;20425;-50
2022/01/09 17:59:19;;;;;;;4.68;0.90;;;;;;;;;;4415346;32;20073;-49
2022/01/09 18:01:48;;;;;;;4.00;0.93;;;;;;;;;;4405448;32;20046;-51
2022/01/09 18:04:17;;;;;;;3.00;1.20;;;;;;;;;;4412407;32;20452;-52
2022/01/09 18:06:46;;;;;;;3.20;1.00;;;;;;;;;;4418039;32;20051;-50
2022/01/09 18:09:14;;;;;;;2.60;0.88;;;;;;;;;;4411190;32;20038;-51
2022/01/09 18:11:42;;;;;;;5.25;1.00;;;;;;;;;;4414179;32;20049;-50
2022/01/09 18:14:11;;;;;;;5.93;1.12;;;;;;;;;;4415516;32;20089;-51
2022/01/09 18:16:39;;;;;;;3.97;1.10;;;;;;;;;;4415070;32;20161;-49
2022/01/09 18:19:08;;;;;;;3.15;0.88;;;;;;;;;;4413481;32;20042;-49
2022/01/09 18:21:36;;;;;;;2.50;0.70;;;;;;;;;;4403007;32;20051;-49
2022/01/09 18:24:09;;;;;;;1.62;0.88;;;;;;;;;;4413101;32;20109;-50
2022/01/09 18:26:38;;;;;;;3.08;0.80;;;;;;;;;;4411082;32;20068;-50
2022/01/09 18:29:06;;;;;;;4.47;1.12;;;;;;;;;;4416769;32;20443;-50
2022/01/09 18:31:34;;;;;;;5.62;1.30;;;;;;;;;;4404169;32;25444;-50
2022/01/09 18:34:03;;;;;;;2.05;0.73;;;;;;;;;;4408574;32;20047;-51
2022/01/09 18:36:31;;;;;;;2.95;0.95;;;;;;;;;;4408520;32;20412;-52
2022/01/09 18:38:59;;;;;;;3.30;0.93;;;;;;;;;;4409294;32;20138;-50
2022/01/09 18:41:28;;;;;;;2.42;0.85;;;;;;;;;;4407215;32;20657;-49
2022/01/09 18:43:56;;;;;;;2.42;0.85;;;;;;;;;;4409014;32;20039;-50
2022/01/09 18:46:25;;;;;;;2.70;0.95;;;;;;;;;;4410454;32;20502;-48
2022/01/09 18:48:53;;;;;;;2.30;0.85;;;;;;;;;;4408065;32;20066;-49
2022/01/09 18:51:22;;;;;;;4.72;0.80;;;;;;;;;;4410636;32;20073;-48
2022/01/09 18:53:51;;;;;;;2.75;0.90;;;;;;;;;;4411875;32;20088;-49
2022/01/09 18:56:25;;;;;;;2.15;0.85;;;;;;;;;;4412022;32;20038;-48
2022/01/09 18:58:53;;;;;;;2.03;0.95;;;;;;;;;;4408782;32;20030;-49
2022/01/09 19:01:27;;;;;;;2.67;0.95;;;;;;;;;;4413490;32;20038;-51
2022/01/09 19:03:56;;;;;;;6.95;0.90;;;;;;;;;;4405338;32;20434;-48
2022/01/09 19:06:24;;;;;;;3.87;0.80;;;;;;;;;;4409375;32;20059;-48
2022/01/09 19:08:53;;;;;;;4.37;0.98;;;;;;;;;;4408236;32;20091;-48
2022/01/09 19:11:22;;;;;;;1.92;0.90;;;;;;;;;;4407644;32;20415;-48
2022/01/09 19:13:51;;;;;;;3.22;0.90;;;;;;;;;;4406171;32;20115;-49
2022/01/09 19:16:20;;;;;;;2.62;0.75;;;;;;;;;;4407712;32;20082;-50
2022/01/09 19:18:48;;;;;;;3.47;1.00;;;;;;;;;;4410186;32;20030;-49
2022/01/09 19:21:16;;;;;;;2.67;0.93;;;;;;;;;;4407551;32;21438;-49
2022/01/09 19:23:45;;;;;;;1.27;0.75;;;;;;;;;;4413422;32;20106;-53
2022/01/09 19:26:13;;;;;;;1.95;0.90;;;;;;;;;;4412827;32;20034;-49
2022/01/09 19:28:41;;;;;;;4.10;0.93;;;;;;;;;;4409535;32;20103;-48
2022/01/09 19:31:10;;;;;;;1.55;0.60;;;;;;;;;;4402715;32;20102;-49
2022/01/09 19:33:38;;;;;;;1.97;0.90;;;;;;;;;;4407381;32;20057;-49
2022/01/09 19:36:07;;;;;;;1.95;0.70;;;;;;;;;;4409422;32;20063;-49
2022/01/09 19:38:35;;;;;;;2.78;0.65;;;;;;;;;;4412888;32;20074;-49
2022/01/09 19:41:05;;;;;;;2.78;0.90;;;;;;;;;;4405037;32;20038;-52
2022/01/09 19:43:33;;;;;;;2.95;0.93;;;;;;;;;;4413990;32;20096;-49
2022/01/09 19:46:01;;;;;;;2.22;0.70;;;;;;;;;;4405588;32;20046;-48
2022/01/09 19:48:30;;;;;;;3.05;0.90;;;;;;;;;;4407586;32;20464;-48
2022/01/09 19:50:58;;;;;;;2.25;0.80;;;;;;;;;;4409273;32;20437;-49
2022/01/09 19:53:27;;;;;;;2.50;0.70;;;;;;;;;;4409882;32;20062;-49
2022/01/09 19:55:55;;;;;;;1.62;0.70;;;;;;;;;;4412802;32;20140;-49
2022/01/09 19:58:24;;;;;;;1.65;0.70;;;;;;;;;;4413221;32;20073;-49
2022/01/09 20:00:52;;;;;;;2.28;0.93;;;;;;;;;;4411367;32;20030;-49
2022/01/09 20:03:21;;;;;;;2.28;0.90;;;;;;;;;;4410837;32;20068;-50
2022/01/09 20:05:50;;;;;;;1.65;0.70;;;;;;;;;;4411664;32;20077;-50
2022/01/09 20:08:18;;;;;;;1.83;0.70;;;;;;;;;;4408120;32;20089;-49
2022/01/09 20:10:46;;;;;;;2.30;0.95;;;;;;;;;;4407689;32;20417;-50
2022/01/09 20:13:16;;;;;;;1.55;0.80;;;;;;;;;;4407535;32;20430;-49
2022/01/09 20:15:44;;;;;;;2.00;0.73;;;;;;;;;;4411525;32;20040;-48
2022/01/09 20:18:13;;;;;;;2.80;0.93;;;;;;;;;;4418161;32;20047;-48
2022/01/09 20:20:42;;;;;;;2.35;0.75;;;;;;;;;;4418848;32;20366;-51
2022/01/09 20:23:10;;;;;;;1.87;0.80;;;;;;;;;;4408389;32;20098;-50
2022/01/09 20:25:39;;;;;;;1.80;0.73;;;;;;;;;;4408917;32;20034;-49
2022/01/09 20:28:09;;;;;;;0.80;0.60;;;;;;;;;;4407536;32;20098;-50
2022/01/09 20:30:37;;;;;;;1.33;0.60;;;;;;;;;;4414161;32;20122;-50
2022/01/09 20:33:06;;;;;;;0.60;0.50;;;;;;;;;;4412751;32;20126;-50
2022/01/09 20:35:35;;;;;;;1.45;0.68;;;;;;;;;;4413414;32;20056;-50
2022/01/09 20:38:03;;;;;;;2.30;0.60;;;;;;;;;;4410458;32;20053;-51
2022/01/09 20:40:32;;;;;;;2.28;0.62;;;;;;;;;;4417442;32;20430;-50
2022/01/09 20:43:02;;;;;;;0.85;0.57;;;;;;;;;;4420747;32;20029;-52
2022/01/09 20:45:30;;;;;;;1.87;0.70;;;;;;;;;;4413968;32;20087;-50
2022/01/09 20:47:59;;;;;;;1.27;0.50;;;;;;;;;;4412563;32;20069;-51
2022/01/09 20:50:27;;;;;;;1.70;0.70;;;;;;;;;;4415667;32;20096;-49
2022/01/09 20:52:55;;;;;;;1.87;0.70;;;;;;;;;;4419520;32;20042;-49
2022/01/09 20:55:24;;;;;;;2.03;0.60;;;;;;;;;;4416262;32;20034;-49
2022/01/09 20:57:52;;;;;;;1.35;0.62;;;;;;;;;;4409815;32;20085;-49
2022/01/09 21:00:20;;;;;;;1.62;0.80;;;;;;;;;;4409730;32;20018;-52
2022/01/09 21:02:49;;;;;;;1.67;0.65;;;;;;;;;;4415764;32;20031;-49
2022/01/09 21:05:17;;;;;;;2.62;0.62;;;;;;;;;;4407295;32;20056;-49
2022/01/09 21:07:46;;;;;;;1.00;0.60;;;;;;;;;;4411754;32;20059;-50
2022/01/09 21:10:15;;;;;;;1.50;0.70;;;;;;;;;;4412534;32;20049;-49
2022/01/09 21:12:43;;;;;;;1.20;0.70;;;;;;;;;;4410788;32;20146;-49
2022/01/09 21:15:11;;;;;;;1.60;0.60;;;;;;;;;;4409013;32;20056;-49
2022/01/09 21:17:42;;;;;;;2.10;0.68;;;;;;;;;;4403520;32;20086;-49
2022/01/09 21:20:10;;;;;;;3.42;0.80;;;;;;;;;;4411684;32;20100;-51
2022/01/09 21:22:41;;;;;;;1.73;0.70;;;;;;;;;;4415325;32;20388;-51
2022/01/09 21:25:11;;;;;;;1.08;0.75;;;;;;;;;;4406885;32;20101;-50
2022/01/09 21:27:40;;;;;;;2.25;0.93;;;;;;;;;;4411944;32;20089;-49
2022/01/09 21:30:08;;;;;;;0.60;0.50;;;;;;;;;;4409481;32;20070;-50
2022/01/09 21:32:37;;;;;;;1.67;0.52;;;;;;;;;;4415169;32;20038;-49
2022/01/09 21:35:05;;;;;;;1.85;0.50;;;;;;;;;;4408445;32;20090;-50
2022/01/09 21:37:34;;;;;;;1.12;0.57;;;;;;;;;;4418836;32;20053;-49
2022/01/09 21:40:03;;;;;;;1.12;0.75;;;;;;;;;;4409398;32;20039;-51
2022/01/09 21:42:31;;;;;;;1.00;0.60;;;;;;;;;;4405559;32;20038;-49
2022/01/09 21:44:59;;;;;;;1.70;0.70;;;;;;;;;;4411993;32;20101;-48
2022/01/09 21:47:28;;;;;;;1.23;0.60;;;;;;;;;;4412981;32;20038;-48
2022/01/09 21:49:56;;;;;;;1.23;0.75;;;;;;;;;;4418267;32;20073;-48
2022/01/09 21:52:25;;;;;;;0.95;0.60;;;;;;;;;;4409918;32;20046;-49
2022/01/09 21:54:53;;;;;;;1.70;0.65;;;;;;;;;;4415233;32;20035;-48
2022/01/09 21:57:22;;;;;;;0.40;0.40;;;;;;;;;;4409392;32;20043;-49
2022/01/09 21:59:50;;;;;;;0.73;0.52;;;;;;;;;;4410737;32;20065;-49
2022/01/09 22:02:21;;;;;;;1.17;0.70;;;;;;;;;;4416681;32;20097;-49
2022/01/09 22:04:50;;;;;;;1.40;0.73;;;;;;;;;;4412198;32;20102;-50
2022/01/09 22:07:20;;;;;;;1.55;0.70;;;;;;;;;;4403904;32;20047;-48
2022/01/09 22:09:48;;;;;;;1.23;0.70;;;;;;;;;;4410063;32;20334;-48
2022/01/09 22:12:17;;;;;;;1.05;0.70;;;;;;;;;;4417553;32;20034;-49
2022/01/09 22:14:45;;;;;;;1.10;0.50;;;;;;;;;;4401427;32;20392;-50
2022/01/09 22:17:13;;;;;;;2.90;0.70;;;;;;;;;;4404165;32;20138;-49
2022/01/09 22:19:42;;;;;;;1.00;0.60;;;;;;;;;;4407972;32;20038;-49
2022/01/09 22:22:15;;;;;;;2.25;0.50;;;;;;;;;;4402065;32;20323;-49
2022/01/09 22:24:46;;;;;;;1.58;0.65;;;;;;;;;;4411118;32;20064;-50
2022/01/09 22:27:15;;;;;;;0.80;0.50;;;;;;;;;;4410018;32;20076;-51
2022/01/09 22:29:43;;;;;;;1.87;0.60;;;;;;;;;;4415563;32;20084;-50
2022/01/09 22:32:12;;;;;;;1.00;0.55;;;;;;;;;;4410632;32;20030;-48
2022/01/09 22:34:41;;;;;;;0.70;0.50;;;;;;;;;;4414563;32;20104;-50
2022/01/09 22:37:10;;;;;;;0.68;0.57;;;;;;;;;;4409225;32;20035;-52
2022/01/09 22:39:38;;;;;;;0.93;0.65;;;;;;;;;;4416784;32;20031;-49
2022/01/09 22:42:07;;;;;;;1.35;0.60;;;;;;;;;;4409755;32;20046;-49
2022/01/09 22:44:35;;;;;;;1.98;0.60;;;;;;;;;;4408584;32;20068;-49
2022/01/09 22:47:05;;;;;;;1.00;0.60;;;;;;;;;;4408243;32;20035;-52
2022/01/09 22:49:34;;;;;;;0.65;0.50;;;;;;;;;;4405445;32;20030;-49
2022/01/09 22:52:02;;;;;;;1.52;0.80;;;;;;;;;;4401609;32;20056;-50
2022/01/09 22:54:31;;;;;;;1.10;0.60;;;;;;;;;;4412985;32;20077;-49
2022/01/09 22:57:00;;;;;;;0.68;0.47;;;;;;;;;;4413049;32;20413;-52
2022/01/09 22:59:28;;;;;;;0.62;0.47;;;;;;;;;;4411330;32;20046;-49
2022/01/09 23:01:59;;;;;;;0.85;0.60;;;;;;;;;;4411491;32;20168;-50
2022/01/09 23:04:28;;;;;;;1.20;0.50;;;;;;;;;;4414697;32;20086;-49
2022/01/09 23:06:57;;;;;;;1.30;0.40;;;;;;;;;;4409455;32;20042;-52
2022/01/09 23:09:26;;;;;;;0.73;0.55;;;;;;;;;;4415990;32;20433;-50
2022/01/09 23:11:54;;;;;;;0.75;0.70;;;;;;;;;;4406527;32;20050;-50
2022/01/09 23:14:23;;;;;;;0.50;0.50;;;;;;;;;;4399657;32;20045;-52
2022/01/09 23:16:52;;;;;;;1.23;0.60;;;;;;;;;;4407387;32;20026;-50
2022/01/09 23:19:20;;;;;;;0.60;0.52;;;;;;;;;;4399416;32;20047;-49
2022/01/09 23:21:49;;;;;;;0.90;0.50;;;;;;;;;;4410908;32;20390;-47
2022/01/09 23:24:17;;;;;;;1.10;0.50;;;;;;;;;;4403485;32;20093;-49
2022/01/09 23:26:51;;;;;;;0.90;0.65;;;;;;;;;;4415096;32;20093;-51
2022/01/09 23:29:19;;;;;;;1.02;0.80;;;;;;;;;;4410561;32;20417;-50
2022/01/09 23:31:47;;;;;;;1.17;0.60;;;;;;;;;;4403730;32;20108;-49
2022/01/09 23:34:16;;;;;;;1.12;0.70;;;;;;;;;;4404002;32;20393;-52
2022/01/09 23:39:32;;;;;;;0.47;0.47;;;;;;;;;;4410018;32;20053;-49
2022/01/09 23:42:01;;;;;;;1.25;0.60;;;;;;;;;;4408941;32;20058;-48
2022/01/09 23:44:30;;;;;;;0.77;0.60;;;;;;;;;;4407084;32;20030;-51
2022/01/09 23:46:58;;;;;;;1.33;0.60;;;;;;;;;;4404307;32;20080;-50
2022/01/09 23:52:14;;;;;;;0.90;0.57;;;;;;;;;;4406113;32;20057;-49
2022/01/09 23:54:43;;;;;;;0.93;0.60;;;;;;;;;;4411514;32;20412;-49
2022/01/09 23:57:12;;;;;;;1.17;0.45;;;;;;;;;;4408734;32;20081;-51
2022/01/09 23:59:41;;;;;;;0.93;0.60;;;;;;;;;;4396068;32;20108;-50
